createdAt,value
2022-12-01T00:00:30.690Z,16
2022-12-01T00:01:30.690Z,15
2022-12-01T00:02:30.899Z,17
2022-12-01T00:03:30.736Z,19
2022-12-01T00:04:30.685Z,19
2022-12-01T00:05:30.690Z,25
2022-12-01T00:06:30.688Z,15
2022-12-01T00:07:30.722Z,21
2022-12-01T00:08:30.688Z,15
2022-12-01T00:09:30.692Z,16
2022-12-01T00:10:30.692Z,18
2022-12-01T00:11:30.693Z,16
2022-12-01T00:12:30.679Z,15
2022-12-01T00:13:30.687Z,12
2022-12-01T00:14:30.714Z,18
2022-12-01T00:15:30.687Z,18
2022-12-01T00:16:30.783Z,15
2022-12-01T00:17:30.682Z,12
2022-12-01T00:18:30.684Z,16
2022-12-01T00:19:30.714Z,17
2022-12-01T00:20:30.694Z,20
2022-12-01T00:21:30.695Z,13
2022-12-01T00:22:30.682Z,19
2022-12-01T00:23:30.682Z,21
2022-12-01T00:24:30.690Z,18
2022-12-01T00:25:30.678Z,19
2022-12-01T00:26:30.685Z,22
2022-12-01T00:27:30.695Z,31
2022-12-01T00:28:30.687Z,13
2022-12-01T00:29:30.695Z,25
2022-12-01T00:30:30.683Z,25
2022-12-01T00:31:30.729Z,17
2022-12-01T00:32:30.692Z,16
2022-12-01T00:33:30.690Z,20
2022-12-01T00:34:30.685Z,17
2022-12-01T00:35:30.699Z,18
2022-12-01T00:36:30.723Z,22
2022-12-01T00:37:30.685Z,18
2022-12-01T00:38:30.684Z,17
2022-12-01T00:39:30.687Z,19
2022-12-01T00:40:30.694Z,14
2022-12-01T00:41:30.712Z,26
2022-12-01T00:42:30.684Z,20
2022-12-01T00:43:30.692Z,13
2022-12-01T00:45:30.844Z,14
2022-12-01T00:46:30.784Z,13
2022-12-01T00:47:30.685Z,12
2022-12-01T00:48:30.687Z,15
2022-12-01T00:49:30.694Z,17
2022-12-01T00:50:30.691Z,19
2022-12-01T00:51:30.695Z,24
2022-12-01T00:52:30.691Z,22
2022-12-01T00:53:30.710Z,21
2022-12-01T00:54:30.690Z,17
2022-12-01T00:55:30.701Z,22
2022-12-01T00:56:30.690Z,19
2022-12-01T00:57:30.695Z,20
2022-12-01T00:58:30.687Z,19
2022-12-01T00:59:30.692Z,12
2022-12-01T01:00:30.693Z,14
2022-12-01T01:01:30.722Z,21
2022-12-01T01:02:30.758Z,15
2022-12-01T01:03:30.702Z,24
2022-12-01T01:04:30.683Z,23
2022-12-01T01:05:30.697Z,21
2022-12-01T01:06:30.685Z,14
2022-12-01T01:07:30.736Z,15
2022-12-01T01:08:30.695Z,21
2022-12-01T01:09:30.686Z,16
2022-12-01T01:10:30.751Z,21
2022-12-01T01:11:30.703Z,15
2022-12-01T01:12:30.692Z,15
2022-12-01T01:13:30.692Z,12
2022-12-01T01:14:30.696Z,23
2022-12-01T01:15:30.688Z,31
2022-12-01T01:16:30.784Z,13
2022-12-01T01:17:30.685Z,16
2022-12-01T01:18:30.691Z,21
2022-12-01T01:19:30.689Z,14
2022-12-01T01:20:30.691Z,17
2022-12-01T01:21:30.692Z,17
2022-12-01T01:22:30.694Z,15
2022-12-01T01:23:30.687Z,19
2022-12-01T01:24:30.693Z,17
2022-12-01T01:25:30.694Z,15
2022-12-01T01:26:30.689Z,14
2022-12-01T01:27:30.695Z,23
2022-12-01T01:28:30.691Z,13
2022-12-01T01:29:30.691Z,13
2022-12-01T01:30:30.759Z,23
2022-12-01T01:31:30.710Z,14
2022-12-01T01:32:30.713Z,14
2022-12-01T01:33:30.696Z,14
2022-12-01T01:34:30.699Z,16
2022-12-01T01:35:30.690Z,13
2022-12-01T01:36:30.687Z,18
2022-12-01T01:37:30.687Z,15
2022-12-01T01:38:30.687Z,16
2022-12-01T01:39:30.694Z,14
2022-12-01T01:40:30.699Z,15
2022-12-01T01:41:30.692Z,18
2022-12-01T01:42:30.693Z,18
2022-12-01T01:43:30.687Z,17
2022-12-01T01:44:30.686Z,16
2022-12-01T01:45:30.686Z,15
2022-12-01T01:46:30.819Z,15
2022-12-01T01:47:30.720Z,15
2022-12-01T01:48:30.696Z,15
2022-12-01T01:49:30.682Z,20
2022-12-01T01:50:30.688Z,0
2022-12-01T01:51:30.694Z,16
2022-12-01T01:52:30.708Z,16
2022-12-01T01:53:30.689Z,16
2022-12-01T01:54:30.690Z,17
2022-12-01T01:55:30.697Z,13
2022-12-01T01:56:30.694Z,17
2022-12-01T01:57:30.703Z,14
2022-12-01T01:58:30.702Z,18
2022-12-01T01:59:30.727Z,17
2022-12-01T02:00:30.691Z,15
2022-12-01T02:01:30.791Z,16
2022-12-01T02:02:30.774Z,16
2022-12-01T02:03:30.690Z,15
2022-12-01T02:04:30.693Z,16
2022-12-01T02:05:30.695Z,18
2022-12-01T02:06:30.696Z,16
2022-12-01T02:07:30.737Z,16
2022-12-01T02:08:30.695Z,14
2022-12-01T02:09:30.693Z,16
2022-12-01T02:10:30.680Z,14
2022-12-01T02:11:30.722Z,16
2022-12-01T02:12:30.691Z,15
2022-12-01T02:13:30.687Z,14
2022-12-01T02:14:30.691Z,15
2022-12-01T02:15:30.691Z,16
2022-12-01T02:16:30.734Z,14
2022-12-01T02:17:30.690Z,14
2022-12-01T02:18:30.723Z,14
2022-12-01T02:19:30.689Z,13
2022-12-01T02:20:30.692Z,14
2022-12-01T02:21:30.686Z,15
2022-12-01T02:22:30.695Z,15
2022-12-01T02:23:30.715Z,18
2022-12-01T02:24:30.692Z,15
2022-12-01T02:25:30.695Z,14
2022-12-01T02:26:30.691Z,16
2022-12-01T02:27:30.706Z,16
2022-12-01T02:28:30.713Z,22
2022-12-01T02:29:30.693Z,13
2022-12-01T02:30:30.737Z,16
2022-12-01T02:31:30.693Z,19
2022-12-01T02:32:30.690Z,16
2022-12-01T02:33:30.692Z,15
2022-12-01T02:34:30.694Z,18
2022-12-01T02:35:30.687Z,15
2022-12-01T02:36:30.692Z,15
2022-12-01T02:37:30.698Z,17
2022-12-01T02:38:30.691Z,19
2022-12-01T02:39:30.710Z,20
2022-12-01T02:40:30.693Z,19
2022-12-01T02:41:30.694Z,22
2022-12-01T02:42:30.698Z,21
2022-12-01T02:43:30.691Z,21
2022-12-01T02:44:30.694Z,24
2022-12-01T02:45:30.683Z,23
2022-12-01T02:46:30.744Z,26
2022-12-01T02:47:30.705Z,23
2022-12-01T02:48:30.683Z,24
2022-12-01T02:49:30.720Z,25
2022-12-01T02:50:30.714Z,26
2022-12-01T02:51:30.689Z,22
2022-12-01T02:52:30.699Z,23
2022-12-01T02:53:30.699Z,22
2022-12-01T02:54:30.698Z,21
2022-12-01T02:55:30.678Z,20
2022-12-01T02:56:30.689Z,18
2022-12-01T02:57:30.691Z,22
2022-12-01T02:58:30.689Z,19
2022-12-01T02:59:30.700Z,18
2022-12-01T03:00:30.700Z,17
2022-12-01T03:01:30.720Z,17
2022-12-01T03:02:30.722Z,17
2022-12-01T03:03:30.702Z,16
2022-12-01T03:04:30.695Z,18
2022-12-01T03:05:30.694Z,20
2022-12-01T03:06:30.682Z,14
2022-12-01T03:07:30.732Z,17
2022-12-01T03:08:30.688Z,18
2022-12-01T03:09:30.691Z,19
2022-12-01T03:10:30.691Z,17
2022-12-01T03:11:30.695Z,18
2022-12-01T03:12:30.696Z,16
2022-12-01T03:13:30.693Z,18
2022-12-01T03:14:30.690Z,17
2022-12-01T03:15:30.684Z,17
2022-12-01T03:16:30.730Z,18
2022-12-01T03:17:30.694Z,18
2022-12-01T03:18:30.694Z,18
2022-12-01T03:19:30.689Z,21
2022-12-01T03:20:30.716Z,19
2022-12-01T03:21:30.687Z,20
2022-12-01T03:22:30.707Z,21
2022-12-01T03:23:30.685Z,20
2022-12-01T03:24:30.686Z,20
2022-12-01T03:25:30.683Z,20
2022-12-01T03:26:30.694Z,19
2022-12-01T03:27:30.691Z,20
2022-12-01T03:28:30.684Z,25
2022-12-01T03:29:30.683Z,19
2022-12-01T03:30:30.688Z,19
2022-12-01T03:31:30.743Z,19
2022-12-01T03:32:30.693Z,20
2022-12-01T03:33:30.690Z,19
2022-12-01T03:34:30.709Z,19
2022-12-01T03:35:30.683Z,19
2022-12-01T03:36:30.701Z,20
2022-12-01T03:37:30.684Z,20
2022-12-01T03:38:30.707Z,19
2022-12-01T03:39:30.689Z,21
2022-12-01T03:40:30.712Z,20
2022-12-01T03:41:30.692Z,19
2022-12-01T03:42:30.688Z,18
2022-12-01T03:43:30.684Z,19
2022-12-01T03:44:30.703Z,18
2022-12-01T03:45:30.688Z,19
2022-12-01T03:46:30.818Z,19
2022-12-01T03:47:30.682Z,18
2022-12-01T03:48:30.693Z,21
2022-12-01T03:49:30.707Z,21
2022-12-01T03:50:30.694Z,20
2022-12-01T03:51:30.729Z,26
2022-12-01T03:52:30.691Z,20
2022-12-01T03:53:30.685Z,21
2022-12-01T03:54:30.692Z,21
2022-12-01T03:55:30.685Z,21
2022-12-01T03:56:30.742Z,24
2022-12-01T03:57:30.686Z,22
2022-12-01T03:58:30.686Z,24
2022-12-01T03:59:30.691Z,21
2022-12-01T04:00:30.689Z,24
2022-12-01T04:01:30.786Z,24
2022-12-01T04:02:30.731Z,22
2022-12-01T04:03:30.696Z,26
2022-12-01T04:04:30.695Z,22
2022-12-01T04:05:30.688Z,19
2022-12-01T04:06:30.697Z,19
2022-12-01T04:07:30.738Z,21
2022-12-01T04:08:30.704Z,21
2022-12-01T04:09:30.699Z,20
2022-12-01T04:10:30.688Z,21
2022-12-01T04:11:32.787Z,21
2022-12-01T04:12:30.694Z,21
2022-12-01T04:13:30.694Z,21
2022-12-01T04:14:30.703Z,20
2022-12-01T04:15:30.694Z,20
2022-12-01T04:16:30.750Z,21
2022-12-01T04:17:30.693Z,23
2022-12-01T04:18:30.706Z,21
2022-12-01T04:19:30.688Z,23
2022-12-01T04:20:30.689Z,23
2022-12-01T04:21:30.694Z,22
2022-12-01T04:22:30.726Z,24
2022-12-01T04:23:30.773Z,23
2022-12-01T04:24:30.694Z,23
2022-12-01T04:25:30.694Z,23
2022-12-01T04:26:30.695Z,23
2022-12-01T04:27:30.687Z,25
2022-12-01T04:28:30.695Z,20
2022-12-01T04:29:30.707Z,20
2022-12-01T04:30:30.730Z,23
2022-12-01T04:31:30.878Z,22
2022-12-01T04:32:30.692Z,22
2022-12-01T04:33:30.688Z,22
2022-12-01T04:34:30.705Z,19
2022-12-01T04:35:30.688Z,20
2022-12-01T04:36:30.689Z,19
2022-12-01T04:37:30.731Z,19
2022-12-01T04:38:31.200Z,14
2022-12-01T04:39:30.694Z,15
2022-12-01T04:40:30.694Z,15
2022-12-01T04:41:30.689Z,14
2022-12-01T04:42:30.755Z,14
2022-12-01T04:43:30.690Z,15
2022-12-01T04:44:34.500Z,16
2022-12-01T04:45:30.695Z,15
2022-12-01T04:47:30.698Z,14
2022-12-01T04:48:30.687Z,15
2022-12-01T04:49:30.723Z,13
2022-12-01T04:50:30.690Z,14
2022-12-01T04:51:30.704Z,16
2022-12-01T04:52:35.087Z,13
2022-12-01T04:53:30.725Z,15
2022-12-01T04:54:30.699Z,14
2022-12-01T04:55:30.687Z,15
2022-12-01T04:56:30.695Z,17
2022-12-01T04:57:30.694Z,13
2022-12-01T04:58:30.696Z,15
2022-12-01T04:59:30.700Z,15
2022-12-01T05:00:30.802Z,13
2022-12-01T05:01:30.789Z,19
2022-12-01T05:02:30.774Z,17
2022-12-01T05:03:30.690Z,14
2022-12-01T05:04:30.698Z,16
2022-12-01T05:05:30.692Z,14
2022-12-01T05:06:30.716Z,20
2022-12-01T05:07:30.722Z,14
2022-12-01T05:08:30.700Z,17
2022-12-01T05:09:30.690Z,16
2022-12-01T05:10:30.698Z,14
2022-12-01T05:11:30.691Z,15
2022-12-01T05:12:30.701Z,17
2022-12-01T05:13:30.691Z,16
2022-12-01T05:14:30.698Z,18
2022-12-01T05:15:30.702Z,16
2022-12-01T05:16:30.767Z,15
2022-12-01T05:17:36.661Z,14
2022-12-01T05:18:30.739Z,16
2022-12-01T05:19:30.693Z,15
2022-12-01T05:20:30.697Z,16
2022-12-01T05:21:30.699Z,16
2022-12-01T05:23:03.312Z,16
2022-12-01T05:23:30.719Z,16
2022-12-01T05:24:30.728Z,13
2022-12-01T05:25:30.701Z,16
2022-12-01T05:26:30.690Z,19
2022-12-01T05:27:30.701Z,17
2022-12-01T05:28:30.689Z,17
2022-12-01T05:29:30.696Z,16
2022-12-01T05:30:30.694Z,18
2022-12-01T05:31:30.757Z,16
2022-12-01T05:32:30.699Z,16
2022-12-01T05:33:30.697Z,15
2022-12-01T05:34:30.691Z,17
2022-12-01T05:35:30.695Z,16
2022-12-01T05:36:30.694Z,15
2022-12-01T05:37:30.697Z,14
2022-12-01T05:38:30.688Z,15
2022-12-01T05:39:30.690Z,18
2022-12-01T05:40:30.731Z,15
2022-12-01T05:41:30.710Z,15
2022-12-01T05:42:30.704Z,17
2022-12-01T05:44:30.693Z,19
2022-12-01T05:45:30.750Z,24
2022-12-01T05:46:30.699Z,16
2022-12-01T05:47:30.691Z,21
2022-12-01T05:48:30.692Z,17
2022-12-01T05:49:30.693Z,18
2022-12-01T05:50:30.703Z,21
2022-12-01T05:51:30.697Z,18
2022-12-01T05:52:30.696Z,20
2022-12-01T05:53:30.692Z,17
2022-12-01T05:54:30.696Z,21
2022-12-01T05:55:30.721Z,17
2022-12-01T05:56:30.697Z,18
2022-12-01T05:57:30.721Z,21
2022-12-01T05:58:30.700Z,18
2022-12-01T05:59:30.693Z,20
2022-12-01T06:00:30.706Z,21
2022-12-01T06:01:30.697Z,22
2022-12-01T06:03:30.708Z,22
2022-12-01T06:04:30.766Z,23
2022-12-01T06:05:30.710Z,24
2022-12-01T06:06:30.696Z,21
2022-12-01T06:07:30.800Z,23
2022-12-01T06:08:30.693Z,23
2022-12-01T06:09:30.693Z,25
2022-12-01T06:10:30.706Z,25
2022-12-01T06:11:30.694Z,25
2022-12-01T06:12:30.894Z,21
2022-12-01T06:13:30.689Z,28
2022-12-01T06:14:30.735Z,26
2022-12-01T06:15:30.693Z,23
2022-12-01T06:16:30.781Z,22
2022-12-01T06:17:32.693Z,23
2022-12-01T06:18:30.690Z,27
2022-12-01T06:19:30.692Z,22
2022-12-01T06:20:30.699Z,26
2022-12-01T06:21:30.695Z,25
2022-12-01T06:22:30.697Z,25
2022-12-01T06:23:30.977Z,27
2022-12-01T06:24:30.697Z,26
2022-12-01T06:25:30.694Z,25
2022-12-01T06:26:30.724Z,25
2022-12-01T06:27:30.701Z,29
2022-12-01T06:28:30.703Z,27
2022-12-01T06:29:30.702Z,24
2022-12-01T06:30:30.698Z,26
2022-12-01T06:31:30.765Z,24
2022-12-01T06:32:30.695Z,31
2022-12-01T06:33:30.698Z,25
2022-12-01T06:34:30.701Z,26
2022-12-01T06:35:30.701Z,24
2022-12-01T06:36:30.696Z,25
2022-12-01T06:37:30.696Z,27
2022-12-01T06:38:30.690Z,25
2022-12-01T06:39:30.696Z,28
2022-12-01T06:40:30.701Z,27
2022-12-01T06:41:30.703Z,35
2022-12-01T06:42:30.717Z,28
2022-12-01T06:43:30.698Z,27
2022-12-01T06:44:30.697Z,27
2022-12-01T06:45:31.356Z,27
2022-12-01T06:46:30.765Z,28
2022-12-01T06:47:30.696Z,26
2022-12-01T06:48:30.700Z,28
2022-12-01T06:49:30.697Z,28
2022-12-01T06:50:30.695Z,24
2022-12-01T06:51:30.694Z,27
2022-12-01T06:52:30.691Z,28
2022-12-01T06:53:30.710Z,27
2022-12-01T06:54:30.698Z,28
2022-12-01T06:55:30.705Z,26
2022-12-01T06:56:30.689Z,0
2022-12-01T06:57:30.731Z,28
2022-12-01T06:58:30.702Z,26
2022-12-01T06:59:30.689Z,0
2022-12-01T07:00:30.705Z,26
2022-12-01T07:01:30.756Z,0
2022-12-01T07:02:30.770Z,0
2022-12-01T07:03:30.694Z,28
2022-12-01T07:04:30.705Z,0
2022-12-01T07:05:30.733Z,0
2022-12-01T07:06:30.688Z,0
2022-12-01T07:07:30.767Z,0
2022-12-01T07:08:30.700Z,28
2022-12-01T07:09:30.697Z,0
2022-12-01T07:10:30.765Z,0
2022-12-01T07:11:30.696Z,24
2022-12-01T07:12:30.699Z,0
2022-12-01T07:13:33.814Z,0
2022-12-01T07:14:30.699Z,19
2022-12-01T07:15:30.695Z,24
2022-12-01T07:16:30.780Z,24
2022-12-01T07:17:30.700Z,24
2022-12-01T07:18:30.699Z,24
2022-12-01T07:19:30.692Z,25
2022-12-01T07:20:30.699Z,22
2022-12-01T07:21:30.694Z,22
2022-12-01T07:22:32.888Z,23
2022-12-01T07:23:30.704Z,0
2022-12-01T07:24:30.693Z,0
2022-12-01T07:25:30.698Z,31
2022-12-01T07:26:30.704Z,24
2022-12-01T07:27:30.697Z,0
2022-12-01T07:28:30.726Z,23
2022-12-01T07:29:30.691Z,22
2022-12-01T07:30:30.776Z,0
2022-12-01T07:31:30.742Z,22
2022-12-01T07:32:30.688Z,20
2022-12-01T07:33:30.693Z,22
2022-12-01T07:34:30.701Z,43
2022-12-01T07:35:30.693Z,0
2022-12-01T07:36:30.693Z,0
2022-12-01T07:37:30.746Z,0
2022-12-01T07:38:30.688Z,0
2022-12-01T07:39:30.706Z,0
2022-12-01T07:40:30.693Z,0
2022-12-01T07:41:30.693Z,1
2022-12-01T07:42:30.703Z,0
2022-12-01T07:43:30.695Z,0
2022-12-01T07:44:30.697Z,0
2022-12-01T07:45:30.696Z,0
2022-12-01T07:46:30.732Z,0
2022-12-01T07:47:30.701Z,0
2022-12-01T07:48:30.689Z,0
2022-12-01T07:49:30.686Z,0
2022-12-01T07:50:30.700Z,0
2022-12-01T07:51:30.700Z,0
2022-12-01T07:52:30.687Z,0
2022-12-01T07:53:30.702Z,34
2022-12-01T07:54:30.720Z,14
2022-12-01T07:55:30.692Z,17
2022-12-01T07:56:30.698Z,16
2022-12-01T07:57:30.694Z,20
2022-12-01T07:58:30.700Z,14
2022-12-01T07:59:30.717Z,20
2022-12-01T08:00:30.689Z,23
2022-12-01T08:01:30.806Z,15
2022-12-01T08:02:30.730Z,17
2022-12-01T08:03:30.690Z,17
2022-12-01T08:04:30.685Z,34
2022-12-01T08:05:30.696Z,18
2022-12-01T08:06:30.700Z,19
2022-12-01T08:07:30.770Z,25
2022-12-01T08:08:30.687Z,17
2022-12-01T08:09:30.699Z,20
2022-12-01T08:10:30.694Z,26
2022-12-01T08:11:30.719Z,15
2022-12-01T08:12:30.691Z,17
2022-12-01T08:13:30.693Z,15
2022-12-01T08:14:30.691Z,18
2022-12-01T08:15:30.746Z,17
2022-12-01T08:16:31.703Z,24
2022-12-01T08:17:30.695Z,20
2022-12-01T08:18:30.715Z,21
2022-12-01T08:19:30.691Z,20
2022-12-01T08:20:30.695Z,21
2022-12-01T08:21:30.694Z,23
2022-12-01T08:22:30.693Z,23
2022-12-01T08:23:30.695Z,27
2022-12-01T08:24:30.690Z,26
2022-12-01T08:25:30.689Z,26
2022-12-01T08:26:30.697Z,27
2022-12-01T08:27:30.694Z,26
2022-12-01T08:28:30.733Z,26
2022-12-01T08:29:30.690Z,23
2022-12-01T08:30:30.757Z,27
2022-12-01T08:31:30.784Z,25
2022-12-01T08:32:30.697Z,24
2022-12-01T08:33:30.735Z,28
2022-12-01T08:34:30.685Z,27
2022-12-01T08:35:30.687Z,26
2022-12-01T08:36:30.693Z,26
2022-12-01T08:37:30.692Z,24
2022-12-01T08:38:30.715Z,23
2022-12-01T08:39:30.700Z,25
2022-12-01T08:40:30.692Z,24
2022-12-01T08:41:30.694Z,21
2022-12-01T08:42:30.709Z,20
2022-12-01T08:44:00.679Z,23
2022-12-01T08:44:30.781Z,21
2022-12-01T08:45:30.697Z,20
2022-12-01T08:46:30.783Z,18
2022-12-01T08:47:30.697Z,19
2022-12-01T08:48:30.691Z,19
2022-12-01T08:49:30.687Z,27
2022-12-01T08:50:30.697Z,20
2022-12-01T08:51:30.694Z,17
2022-12-01T08:52:30.690Z,23
2022-12-01T08:53:30.693Z,17
2022-12-01T08:55:30.691Z,15
2022-12-01T08:56:30.695Z,16
2022-12-01T08:57:30.700Z,18
2022-12-01T08:58:30.688Z,19
2022-12-01T08:59:30.700Z,17
2022-12-01T09:00:30.749Z,18
2022-12-01T09:01:30.813Z,17
2022-12-01T09:02:30.894Z,18
2022-12-01T09:03:30.690Z,16
2022-12-01T09:04:30.689Z,18
2022-12-01T09:05:30.697Z,18
2022-12-01T09:06:30.705Z,17
2022-12-01T09:07:30.753Z,16
2022-12-01T09:08:30.690Z,17
2022-12-01T09:09:30.686Z,21
2022-12-01T09:10:30.704Z,15
2022-12-01T09:11:30.690Z,15
2022-12-01T09:12:30.685Z,16
2022-12-01T09:13:30.694Z,16
2022-12-01T09:14:30.685Z,15
2022-12-01T09:15:30.690Z,16
2022-12-01T09:16:30.798Z,13
2022-12-01T09:17:30.739Z,15
2022-12-01T09:18:30.699Z,14
2022-12-01T09:19:30.686Z,14
2022-12-01T09:20:30.684Z,14
2022-12-01T09:21:30.690Z,20
2022-12-01T09:22:30.694Z,15
2022-12-01T09:23:30.698Z,14
2022-12-01T09:24:30.691Z,15
2022-12-01T09:25:30.692Z,17
2022-12-01T09:26:30.732Z,17
2022-12-01T09:27:30.690Z,19
2022-12-01T09:28:30.696Z,19
2022-12-01T09:29:30.691Z,19
2022-12-01T09:30:30.691Z,19
2022-12-01T09:31:30.794Z,19
2022-12-01T09:32:30.718Z,18
2022-12-01T09:33:30.693Z,17
2022-12-01T09:34:30.712Z,18
2022-12-01T09:35:30.690Z,18
2022-12-01T09:36:30.721Z,17
2022-12-01T09:37:30.713Z,20
2022-12-01T09:38:30.700Z,18
2022-12-01T09:39:30.691Z,18
2022-12-01T09:40:30.701Z,17
2022-12-01T09:41:30.687Z,18
2022-12-01T09:42:35.088Z,18
2022-12-01T09:43:30.692Z,22
2022-12-01T09:44:30.694Z,17
2022-12-01T09:45:30.694Z,0
2022-12-01T09:46:30.756Z,0
2022-12-01T09:47:30.699Z,0
2022-12-01T09:48:30.691Z,0
2022-12-01T09:49:30.691Z,14
2022-12-01T09:50:30.711Z,15
2022-12-01T09:51:30.702Z,16
2022-12-01T09:52:30.692Z,11
2022-12-01T09:53:30.762Z,0
2022-12-01T09:54:30.699Z,0
2022-12-01T09:56:30.687Z,17
2022-12-01T09:57:30.691Z,19
2022-12-01T09:58:30.699Z,22
2022-12-01T09:59:30.694Z,0
2022-12-01T10:00:30.748Z,22
2022-12-01T10:01:30.717Z,0
2022-12-01T10:02:30.746Z,22
2022-12-01T10:03:30.727Z,21
2022-12-01T10:04:30.686Z,24
2022-12-01T10:05:30.758Z,21
2022-12-01T10:06:30.754Z,21
2022-12-01T10:07:30.777Z,24
2022-12-01T10:08:30.688Z,23
2022-12-01T10:09:30.693Z,26
2022-12-01T10:10:30.754Z,26
2022-12-01T10:11:30.692Z,26
2022-12-01T10:12:30.695Z,26
2022-12-01T10:13:30.693Z,21
2022-12-01T10:14:30.688Z,21
2022-12-01T10:15:30.704Z,18
2022-12-01T10:16:30.750Z,15
2022-12-01T10:17:30.781Z,18
2022-12-01T10:18:30.697Z,19
2022-12-01T10:19:30.700Z,17
2022-12-01T10:20:30.710Z,15
2022-12-01T10:21:30.695Z,16
2022-12-01T10:22:30.695Z,18
2022-12-01T10:23:30.686Z,19
2022-12-01T10:24:30.691Z,18
2022-12-01T10:25:30.689Z,16
2022-12-01T10:26:30.707Z,18
2022-12-01T10:27:30.693Z,20
2022-12-01T10:28:30.689Z,18
2022-12-01T10:29:30.695Z,17
2022-12-01T10:30:30.690Z,14
2022-12-01T10:31:30.765Z,15
2022-12-01T10:32:30.706Z,0
2022-12-01T10:33:30.693Z,13
2022-12-01T10:34:30.715Z,16
2022-12-01T10:35:30.688Z,14
2022-12-01T10:36:30.690Z,14
2022-12-01T10:37:30.780Z,32
2022-12-01T10:38:30.700Z,20
2022-12-01T10:39:30.696Z,19
2022-12-01T10:40:30.687Z,16
2022-12-01T10:41:30.731Z,17
2022-12-01T10:42:30.695Z,21
2022-12-01T10:43:30.691Z,20
2022-12-01T10:44:30.710Z,21
2022-12-01T10:45:30.789Z,20
2022-12-01T10:46:30.688Z,19
2022-12-01T10:47:30.698Z,18
2022-12-01T10:48:30.684Z,21
2022-12-01T10:49:30.685Z,17
2022-12-01T10:50:30.698Z,14
2022-12-01T10:51:30.689Z,22
2022-12-01T10:52:30.704Z,21
2022-12-01T10:53:30.691Z,18
2022-12-01T10:54:30.694Z,19
2022-12-01T10:55:30.689Z,17
2022-12-01T10:56:30.694Z,23
2022-12-01T10:57:30.696Z,19
2022-12-01T10:58:30.693Z,18
2022-12-01T10:59:30.771Z,21
2022-12-01T11:00:58.675Z,21
2022-12-01T11:01:30.817Z,19
2022-12-01T11:02:30.937Z,19
2022-12-01T11:03:30.949Z,25
2022-12-01T11:04:30.682Z,25
2022-12-01T11:05:30.786Z,28
2022-12-01T11:06:30.697Z,25
2022-12-01T11:07:30.698Z,20
2022-12-01T11:08:30.695Z,20
2022-12-01T11:09:30.697Z,21
2022-12-01T11:10:30.696Z,23
2022-12-01T11:11:30.688Z,25
2022-12-01T11:12:30.698Z,24
2022-12-01T11:13:30.696Z,26
2022-12-01T11:14:30.692Z,34
2022-12-01T11:15:30.684Z,36
2022-12-01T11:16:30.793Z,38
2022-12-01T11:17:30.689Z,33
2022-12-01T11:18:30.699Z,32
2022-12-01T11:19:30.766Z,31
2022-12-01T11:20:30.738Z,32
2022-12-01T11:21:30.696Z,32
2022-12-01T11:22:30.702Z,28
2022-12-01T11:23:30.691Z,29
2022-12-01T11:24:30.685Z,28
2022-12-01T11:25:30.685Z,28
2022-12-01T11:26:30.713Z,30
2022-12-01T11:27:30.686Z,31
2022-12-01T11:28:30.689Z,32
2022-12-01T11:29:30.687Z,29
2022-12-01T11:30:30.688Z,29
2022-12-01T11:31:30.729Z,29
2022-12-01T11:33:30.749Z,26
2022-12-01T11:34:30.691Z,41
2022-12-01T11:36:30.738Z,29
2022-12-01T11:37:30.698Z,27
2022-12-01T11:38:30.887Z,30
2022-12-01T11:39:30.696Z,0
2022-12-01T11:40:30.696Z,29
2022-12-01T11:41:30.700Z,27
2022-12-01T11:42:30.691Z,0
2022-12-01T11:43:30.692Z,30
2022-12-01T11:44:52.552Z,29
2022-12-01T11:45:30.730Z,31
2022-12-01T11:46:30.688Z,23
2022-12-01T11:47:30.695Z,29
2022-12-01T11:48:30.709Z,23
2022-12-01T11:49:30.834Z,25
2022-12-01T11:50:30.714Z,22
2022-12-01T11:51:30.689Z,26
2022-12-01T11:52:30.731Z,33
2022-12-01T11:53:30.692Z,25
2022-12-01T11:54:30.696Z,36
2022-12-01T11:55:30.692Z,29
2022-12-01T11:56:30.692Z,35
2022-12-01T11:58:12.645Z,36
2022-12-01T11:58:30.743Z,40
2022-12-01T11:59:30.695Z,37
2022-12-01T12:00:30.713Z,36
2022-12-01T12:01:30.699Z,37
2022-12-01T12:02:30.830Z,36
2022-12-01T12:03:30.810Z,35
2022-12-01T12:04:30.689Z,37
2022-12-01T12:05:30.692Z,37
2022-12-01T12:06:46.032Z,38
2022-12-01T12:07:30.754Z,40
2022-12-01T12:08:30.729Z,35
2022-12-01T12:09:30.690Z,36
2022-12-01T12:10:30.737Z,35
2022-12-01T12:11:30.750Z,35
2022-12-01T12:12:30.683Z,37
2022-12-01T12:13:30.685Z,34
2022-12-01T12:14:30.689Z,36
2022-12-01T12:15:30.710Z,38
2022-12-01T12:16:32.211Z,37
2022-12-01T12:17:30.781Z,36
2022-12-01T12:18:30.698Z,34
2022-12-01T12:19:39.400Z,35
2022-12-01T12:20:30.685Z,42
2022-12-01T12:21:30.697Z,39
2022-12-01T12:22:30.680Z,36
2022-12-01T12:23:30.730Z,36
2022-12-01T12:24:30.698Z,40
2022-12-01T12:25:30.687Z,37
2022-12-01T12:26:30.689Z,41
2022-12-01T12:27:30.691Z,38
2022-12-01T12:28:30.686Z,40
2022-12-01T12:29:30.689Z,40
2022-12-01T12:30:30.799Z,36
2022-12-01T12:31:30.689Z,39
2022-12-01T12:32:30.694Z,34
2022-12-01T12:33:30.696Z,36
2022-12-01T12:34:30.686Z,36
2022-12-01T12:35:30.703Z,32
2022-12-01T12:36:30.701Z,36
2022-12-01T12:37:30.691Z,28
2022-12-01T12:38:30.720Z,32
2022-12-01T12:39:30.704Z,27
2022-12-01T12:40:30.685Z,32
2022-12-01T12:41:30.692Z,24
2022-12-01T12:42:30.686Z,24
2022-12-01T12:43:30.688Z,26
2022-12-01T12:44:36.592Z,25
2022-12-01T12:45:30.702Z,30
2022-12-01T12:46:30.753Z,33
2022-12-01T12:47:30.699Z,28
2022-12-01T12:48:30.691Z,23
2022-12-01T12:49:30.694Z,23
2022-12-01T12:50:30.744Z,26
2022-12-01T12:51:30.685Z,22
2022-12-01T12:52:30.693Z,25
2022-12-01T12:53:30.699Z,29
2022-12-01T12:54:30.726Z,24
2022-12-01T12:55:30.690Z,22
2022-12-01T12:56:30.738Z,26
2022-12-01T12:57:30.693Z,26
2022-12-01T12:58:30.685Z,24
2022-12-01T12:59:30.699Z,27
2022-12-01T13:00:30.768Z,29
2022-12-01T13:01:30.757Z,24
2022-12-01T13:02:30.709Z,28
2022-12-01T13:03:33.925Z,21
2022-12-01T13:04:30.691Z,21
2022-12-01T13:05:30.685Z,21
2022-12-01T13:06:30.687Z,22
2022-12-01T13:07:30.744Z,21
2022-12-01T13:08:30.694Z,32
2022-12-01T13:09:30.714Z,37
2022-12-01T13:10:30.687Z,24
2022-12-01T13:11:30.690Z,25
2022-12-01T13:12:30.696Z,25
2022-12-01T13:14:30.706Z,28
2022-12-01T13:15:30.776Z,29
2022-12-01T13:16:30.700Z,28
2022-12-01T13:17:30.706Z,29
2022-12-01T13:18:30.700Z,28
2022-12-01T13:19:30.731Z,28
2022-12-01T13:20:30.694Z,30
2022-12-01T13:21:30.733Z,32
2022-12-01T13:22:30.696Z,32
2022-12-01T13:23:30.693Z,29
2022-12-01T13:24:30.690Z,31
2022-12-01T13:25:30.682Z,26
2022-12-01T13:26:30.703Z,25
2022-12-01T13:27:30.685Z,26
2022-12-01T13:28:30.691Z,23
2022-12-01T13:29:30.687Z,26
2022-12-01T13:30:30.702Z,24
2022-12-01T13:31:30.766Z,37
2022-12-01T13:32:30.689Z,23
2022-12-01T13:33:30.797Z,24
2022-12-01T13:34:30.712Z,32
2022-12-01T13:35:30.683Z,28
2022-12-01T13:36:46.374Z,25
2022-12-01T13:37:30.694Z,23
2022-12-01T13:38:30.693Z,28
2022-12-01T13:39:30.686Z,26
2022-12-01T13:40:30.718Z,24
2022-12-01T13:41:30.696Z,24
2022-12-01T13:42:30.704Z,24
2022-12-01T13:43:30.692Z,27
2022-12-01T13:44:30.700Z,32
2022-12-01T13:45:30.690Z,32
2022-12-01T13:46:30.804Z,27
2022-12-01T13:47:30.690Z,26
2022-12-01T13:48:30.694Z,22
2022-12-01T13:49:33.277Z,28
2022-12-01T13:50:30.713Z,29
2022-12-01T13:51:30.734Z,25
2022-12-01T13:52:30.691Z,21
2022-12-01T13:53:30.721Z,25
2022-12-01T13:54:30.693Z,24
2022-12-01T13:55:30.688Z,27
2022-12-01T13:56:30.717Z,27
2022-12-01T13:57:30.687Z,30
2022-12-01T13:58:30.690Z,25
2022-12-01T13:59:30.687Z,25
2022-12-01T14:00:30.745Z,22
2022-12-01T14:01:30.763Z,31
2022-12-01T14:02:30.969Z,32
2022-12-01T14:03:30.759Z,23
2022-12-01T14:04:30.701Z,23
2022-12-01T14:05:30.690Z,24
2022-12-01T14:06:30.692Z,25
2022-12-01T14:07:30.752Z,25
2022-12-01T14:08:30.711Z,25
2022-12-01T14:09:30.684Z,24
2022-12-01T14:10:30.691Z,26
2022-12-01T14:11:30.757Z,23
2022-12-01T14:12:30.704Z,29
2022-12-01T14:13:30.687Z,27
2022-12-01T14:14:30.702Z,30
2022-12-01T14:15:30.685Z,26
2022-12-01T14:16:30.762Z,24
2022-12-01T14:17:30.694Z,27
2022-12-01T14:18:30.697Z,22
2022-12-01T14:19:30.705Z,23
2022-12-01T14:20:30.690Z,24
2022-12-01T14:21:35.056Z,25
2022-12-01T14:22:30.697Z,23
2022-12-01T14:23:30.700Z,24
2022-12-01T14:24:30.685Z,25
2022-12-01T14:25:30.691Z,20
2022-12-01T14:26:30.697Z,26